Terminal Aerodrome Forecast
Issued by NWS

Home | Current Version | Previous Version | Graphics & Text | Print | Product List | Glossary On
Versions: 1 2 3 4 5 6 7 8 9 10 11 12 13 14 15 16 17 18 19 20 21 22 23
110
FTUS42 KMHX 212323
TAFOAJ
TAF
KOAJ 212323Z 2200/2224 VRB03KT P6SM VCTS BKN040CB
     FM220300 00000KT P6SM VCSH BKN015
      TEMPO 2203/2206 4SM TS OVC007CB
     FM220600 VRB03KT P6SM BKN007
     FM221600 36005KT P6SM BKN025
     FM221900 35006KT P6SM BKN040
      AMD LTD TO CLD VIS AND WIND=

USA.gov is the U.S. government's official web portal to all federal, state and local government web resources and services.